sensor_id;sensor_type;location;lat;lon;timestamp;pressure;altitude;pressure_sealevel;temperature;humidity
45285;BME280;31026;43.780;25.948;2023-07-09T00:01:16;101048.44;;;22.89;55.12
45285;BME280;31026;43.780;25.948;2023-07-09T00:03:45;101048.06;;;22.84;55.42
45285;BME280;31026;43.780;25.948;2023-07-09T00:06:16;101037.78;;;22.88;55.01
45285;BME280;31026;43.780;25.948;2023-07-09T00:08:45;101045.88;;;22.88;55.02
45285;BME280;31026;43.780;25.948;2023-07-09T00:11:14;101053.19;;;22.77;55.21
45285;BME280;31026;43.780;25.948;2023-07-09T00:13:42;101055.06;;;22.77;55.04
45285;BME280;31026;43.780;25.948;2023-07-09T00:16:12;101054.22;;;22.76;55.22
45285;BME280;31026;43.780;25.948;2023-07-09T00:18:44;101050.66;;;22.76;55.16
45285;BME280;31026;43.780;25.948;2023-07-09T00:21:14;101052.66;;;22.74;55.10
45285;BME280;31026;43.780;25.948;2023-07-09T00:23:42;101056.66;;;22.70;55.29
45285;BME280;31026;43.780;25.948;2023-07-09T00:26:11;101059.75;;;22.75;55.11
45285;BME280;31026;43.780;25.948;2023-07-09T00:28:40;101067.44;;;22.70;55.18
45285;BME280;31026;43.780;25.948;2023-07-09T00:31:09;101069.75;;;22.64;55.22
45285;BME280;31026;43.780;25.948;2023-07-09T00:33:40;101062.44;;;22.75;54.97
45285;BME280;31026;43.780;25.948;2023-07-09T00:36:13;101064.81;;;22.78;54.92
45285;BME280;31026;43.780;25.948;2023-07-09T00:38:43;101073.78;;;22.78;54.71
45285;BME280;31026;43.780;25.948;2023-07-09T00:41:13;101056.84;;;22.86;54.50
45285;BME280;31026;43.780;25.948;2023-07-09T00:43:43;101055.47;;;22.82;54.77
45285;BME280;31026;43.780;25.948;2023-07-09T00:46:16;101050.50;;;22.95;54.78
45285;BME280;31026;43.780;25.948;2023-07-09T00:49:04;101057.13;;;22.83;55.16
45285;BME280;31026;43.780;25.948;2023-07-09T00:51:38;101040.25;;;22.81;55.11
45285;BME280;31026;43.780;25.948;2023-07-09T00:54:08;101051.75;;;22.83;54.95
45285;BME280;31026;43.780;25.948;2023-07-09T00:56:40;101069.91;;;22.81;55.03
45285;BME280;31026;43.780;25.948;2023-07-09T00:59:12;101054.03;;;22.78;55.08
45285;BME280;31026;43.780;25.948;2023-07-09T01:01:42;101062.81;;;22.80;55.41
45285;BME280;31026;43.780;25.948;2023-07-09T01:04:15;101057.75;;;22.77;55.09
45285;BME280;31026;43.780;25.948;2023-07-09T01:06:48;101055.19;;;22.75;54.68
45285;BME280;31026;43.780;25.948;2023-07-09T01:09:18;101055.81;;;22.69;54.64
45285;BME280;31026;43.780;25.948;2023-07-09T01:11:46;101057.59;;;22.60;54.66
45285;BME280;31026;43.780;25.948;2023-07-09T01:14:16;101047.09;;;22.57;54.23
45285;BME280;31026;43.780;25.948;2023-07-09T01:16:48;101058.91;;;22.56;54.16
45285;BME280;31026;43.780;25.948;2023-07-09T01:19:22;101047.41;;;22.54;54.54
45285;BME280;31026;43.780;25.948;2023-07-09T01:21:54;101054.50;;;22.55;54.25
45285;BME280;31026;43.780;25.948;2023-07-09T01:27:07;101054.91;;;22.60;54.17
45285;BME280;31026;43.780;25.948;2023-07-09T01:29:35;101065.81;;;22.59;54.00
45285;BME280;31026;43.780;25.948;2023-07-09T01:32:04;101045.16;;;22.50;54.19
45285;BME280;31026;43.780;25.948;2023-07-09T01:34:33;101052.81;;;22.54;54.21
45285;BME280;31026;43.780;25.948;2023-07-09T01:37:04;101055.50;;;22.54;53.89
45285;BME280;31026;43.780;25.948;2023-07-09T01:39:32;101069.72;;;22.47;54.01
45285;BME280;31026;43.780;25.948;2023-07-09T01:42:01;101052.88;;;22.44;54.03
45285;BME280;31026;43.780;25.948;2023-07-09T01:44:33;101072.44;;;22.47;53.69
45285;BME280;31026;43.780;25.948;2023-07-09T01:47:03;101074.09;;;22.48;53.79
45285;BME280;31026;43.780;25.948;2023-07-09T01:49:32;101069.19;;;22.43;53.64
45285;BME280;31026;43.780;25.948;2023-07-09T01:52:00;101070.84;;;22.44;53.92
45285;BME280;31026;43.780;25.948;2023-07-09T01:54:31;101094.38;;;22.52;54.24
45285;BME280;31026;43.780;25.948;2023-07-09T01:57:13;101081.44;;;22.55;54.28
45285;BME280;31026;43.780;25.948;2023-07-09T01:59:42;101086.47;;;22.50;53.72
45285;BME280;31026;43.780;25.948;2023-07-09T02:02:10;101082.66;;;22.43;53.98
45285;BME280;31026;43.780;25.948;2023-07-09T02:04:45;101086.34;;;22.42;53.93
45285;BME280;31026;43.780;25.948;2023-07-09T02:07:13;101091.44;;;22.45;53.93
45285;BME280;31026;43.780;25.948;2023-07-09T02:09:44;101084.19;;;22.46;54.36
45285;BME280;31026;43.780;25.948;2023-07-09T02:12:13;101099.19;;;22.48;53.73
45285;BME280;31026;43.780;25.948;2023-07-09T02:14:42;101096.13;;;22.43;53.96
45285;BME280;31026;43.780;25.948;2023-07-09T02:17:11;101105.06;;;22.43;53.76
45285;BME280;31026;43.780;25.948;2023-07-09T02:19:39;101100.13;;;22.39;53.48
45285;BME280;31026;43.780;25.948;2023-07-09T02:22:08;101093.63;;;22.32;53.64
45285;BME280;31026;43.780;25.948;2023-07-09T02:27:08;101111.50;;;22.33;53.45
45285;BME280;31026;43.780;25.948;2023-07-09T02:29:36;101102.81;;;22.39;53.52
45285;BME280;31026;43.780;25.948;2023-07-09T02:32:06;101114.44;;;22.39;53.59
45285;BME280;31026;43.780;25.948;2023-07-09T02:34:34;101115.88;;;22.34;53.18
45285;BME280;31026;43.780;25.948;2023-07-09T02:37:02;101103.41;;;22.33;54.02
45285;BME280;31026;43.780;25.948;2023-07-09T02:39:31;101128.59;;;22.41;53.70
45285;BME280;31026;43.780;25.948;2023-07-09T02:41:59;101138.53;;;22.41;53.45
45285;BME280;31026;43.780;25.948;2023-07-09T02:44:30;101131.44;;;22.40;53.71
45285;BME280;31026;43.780;25.948;2023-07-09T02:46:58;101126.75;;;22.42;53.65
45285;BME280;31026;43.780;25.948;2023-07-09T02:49:26;101135.41;;;22.46;53.13
45285;BME280;31026;43.780;25.948;2023-07-09T02:51:55;101127.44;;;22.44;53.27
45285;BME280;31026;43.780;25.948;2023-07-09T02:54:23;101123.06;;;22.43;53.16
45285;BME280;31026;43.780;25.948;2023-07-09T02:56:51;101141.34;;;22.49;53.45
45285;BME280;31026;43.780;25.948;2023-07-09T02:59:19;101134.19;;;22.58;54.02
45285;BME280;31026;43.780;25.948;2023-07-09T03:01:50;101138.41;;;22.42;53.59
45285;BME280;31026;43.780;25.948;2023-07-09T03:04:19;101122.50;;;22.67;52.61
45285;BME280;31026;43.780;25.948;2023-07-09T03:06:48;101136.84;;;22.68;52.88
45285;BME280;31026;43.780;25.948;2023-07-09T03:09:16;101146.31;;;22.72;52.69
45285;BME280;31026;43.780;25.948;2023-07-09T03:11:45;101142.09;;;22.69;52.33
45285;BME280;31026;43.780;25.948;2023-07-09T03:14:14;101135.06;;;22.58;52.46
45285;BME280;31026;43.780;25.948;2023-07-09T03:16:43;101139.91;;;22.55;52.21
45285;BME280;31026;43.780;25.948;2023-07-09T03:19:13;101128.56;;;22.51;52.43
45285;BME280;31026;43.780;25.948;2023-07-09T03:21:42;101137.84;;;22.67;52.05
45285;BME280;31026;43.780;25.948;2023-07-09T03:24:10;101135.44;;;22.36;53.16
45285;BME280;31026;43.780;25.948;2023-07-09T03:26:43;101138.34;;;22.52;52.78
45285;BME280;31026;43.780;25.948;2023-07-09T03:29:12;101135.81;;;22.51;52.51
45285;BME280;31026;43.780;25.948;2023-07-09T03:31:40;101144.53;;;22.62;52.60
45285;BME280;31026;43.780;25.948;2023-07-09T03:34:08;101146.13;;;22.55;52.72
45285;BME280;31026;43.780;25.948;2023-07-09T03:36:39;101146.38;;;22.62;52.49
45285;BME280;31026;43.780;25.948;2023-07-09T03:39:07;101133.47;;;22.28;53.32
45285;BME280;31026;43.780;25.948;2023-07-09T03:41:36;101136.84;;;22.40;53.00
45285;BME280;31026;43.780;25.948;2023-07-09T03:44:04;101138.94;;;22.46;53.14
45285;BME280;31026;43.780;25.948;2023-07-09T03:46:32;101154.75;;;22.31;53.26
45285;BME280;31026;43.780;25.948;2023-07-09T03:49:01;101160.16;;;22.12;53.88
45285;BME280;31026;43.780;25.948;2023-07-09T03:51:29;101155.44;;;22.23;53.56
45285;BME280;31026;43.780;25.948;2023-07-09T03:54:00;101141.28;;;22.31;53.71
45285;BME280;31026;43.780;25.948;2023-07-09T03:56:28;101160.81;;;22.43;53.48
45285;BME280;31026;43.780;25.948;2023-07-09T03:58:56;101147.25;;;22.62;52.71
45285;BME280;31026;43.780;25.948;2023-07-09T04:01:24;101163.53;;;22.33;53.46
45285;BME280;31026;43.780;25.948;2023-07-09T04:03:53;101164.00;;;22.29;53.80
45285;BME280;31026;43.780;25.948;2023-07-09T04:06:21;101157.00;;;22.63;52.73
45285;BME280;31026;43.780;25.948;2023-07-09T04:08:49;101165.38;;;22.70;52.33
45285;BME280;31026;43.780;25.948;2023-07-09T04:11:20;101158.13;;;22.71;52.75
45285;BME280;31026;43.780;25.948;2023-07-09T04:13:48;101167.28;;;22.78;52.38
45285;BME280;31026;43.780;25.948;2023-07-09T04:16:17;101157.69;;;22.66;52.75
45285;BME280;31026;43.780;25.948;2023-07-09T04:18:45;101150.31;;;22.68;52.53
45285;BME280;31026;43.780;25.948;2023-07-09T04:21:13;101156.22;;;22.81;52.85
45285;BME280;31026;43.780;25.948;2023-07-09T04:23:41;101162.16;;;22.84;53.03
45285;BME280;31026;43.780;25.948;2023-07-09T04:26:10;101161.84;;;22.88;52.92
45285;BME280;31026;43.780;25.948;2023-07-09T04:28:42;101154.97;;;22.93;52.81
45285;BME280;31026;43.780;25.948;2023-07-09T04:31:11;101151.31;;;22.94;52.86
45285;BME280;31026;43.780;25.948;2023-07-09T04:33:39;101152.31;;;22.66;53.99
45285;BME280;31026;43.780;25.948;2023-07-09T04:36:08;101165.50;;;22.41;54.57
45285;BME280;31026;43.780;25.948;2023-07-09T04:38:38;101142.09;;;22.41;54.78
45285;BME280;31026;43.780;25.948;2023-07-09T04:41:06;101166.44;;;22.77;54.03
45285;BME280;31026;43.780;25.948;2023-07-09T04:43:34;101150.63;;;22.64;54.30
45285;BME280;31026;43.780;25.948;2023-07-09T04:46:05;101157.19;;;22.80;54.31
45285;BME280;31026;43.780;25.948;2023-07-09T04:48:34;101146.03;;;22.75;54.82
45285;BME280;31026;43.780;25.948;2023-07-09T04:51:02;101154.63;;;22.60;55.26
45285;BME280;31026;43.780;25.948;2023-07-09T04:53:30;101157.31;;;22.60;55.92
45285;BME280;31026;43.780;25.948;2023-07-09T04:55:59;101146.13;;;22.55;55.85
45285;BME280;31026;43.780;25.948;2023-07-09T04:58:27;101160.53;;;22.64;56.04
45285;BME280;31026;43.780;25.948;2023-07-09T05:00:56;101152.56;;;22.72;56.04
45285;BME280;31026;43.780;25.948;2023-07-09T05:03:27;101161.31;;;22.84;55.92
45285;BME280;31026;43.780;25.948;2023-07-09T05:05:55;101152.47;;;23.10;55.55
45285;BME280;31026;43.780;25.948;2023-07-09T05:08:23;101147.19;;;23.18;55.36
45285;BME280;31026;43.780;25.948;2023-07-09T05:10:52;101143.94;;;23.14;55.68
45285;BME280;31026;43.780;25.948;2023-07-09T05:13:21;101149.19;;;23.16;56.16
45285;BME280;31026;43.780;25.948;2023-07-09T05:15:49;101150.59;;;23.20;56.04
45285;BME280;31026;43.780;25.948;2023-07-09T05:18:18;101148.59;;;23.22;56.33
45285;BME280;31026;43.780;25.948;2023-07-09T05:20:49;101163.06;;;23.39;56.26
45285;BME280;31026;43.780;25.948;2023-07-09T05:23:17;101136.69;;;23.51;56.00
45285;BME280;31026;43.780;25.948;2023-07-09T05:25:46;101142.06;;;23.51;56.14
45285;BME280;31026;43.780;25.948;2023-07-09T05:28:14;101149.78;;;23.46;56.36
45285;BME280;31026;43.780;25.948;2023-07-09T05:30:42;101138.84;;;23.29;57.28
45285;BME280;31026;43.780;25.948;2023-07-09T05:33:11;101145.34;;;23.36;57.14
45285;BME280;31026;43.780;25.948;2023-07-09T05:35:39;101145.41;;;23.45;57.57
45285;BME280;31026;43.780;25.948;2023-07-09T05:38:10;101142.06;;;23.51;57.55
45285;BME280;31026;43.780;25.948;2023-07-09T05:40:38;101144.22;;;23.47;58.07
45285;BME280;31026;43.780;25.948;2023-07-09T05:43:07;101134.22;;;23.39;58.03
45285;BME280;31026;43.780;25.948;2023-07-09T05:45:35;101141.31;;;23.40;58.81
45285;BME280;31026;43.780;25.948;2023-07-09T05:48:04;101140.53;;;23.48;58.66
45285;BME280;31026;43.780;25.948;2023-07-09T05:50:33;101126.38;;;23.72;58.11
45285;BME280;31026;43.780;25.948;2023-07-09T05:53:01;101126.31;;;23.64;58.56
45285;BME280;31026;43.780;25.948;2023-07-09T05:55:33;101135.97;;;23.67;58.73
45285;BME280;31026;43.780;25.948;2023-07-09T05:58:02;101132.09;;;23.69;58.78
45285;BME280;31026;43.780;25.948;2023-07-09T06:00:30;101126.78;;;24.04;58.11
45285;BME280;31026;43.780;25.948;2023-07-09T06:02:58;101134.19;;;24.28;57.23
45285;BME280;31026;43.780;25.948;2023-07-09T06:05:28;101136.75;;;24.11;57.77
45285;BME280;31026;43.780;25.948;2023-07-09T06:07:57;101125.41;;;23.99;58.00
45285;BME280;31026;43.780;25.948;2023-07-09T06:10:25;101125.06;;;24.02;58.08
45285;BME280;31026;43.780;25.948;2023-07-09T06:12:57;101118.06;;;24.18;57.83
45285;BME280;31026;43.780;25.948;2023-07-09T06:15:26;101119.25;;;24.15;57.67
45285;BME280;31026;43.780;25.948;2023-07-09T06:17:54;101128.66;;;24.37;57.56
45285;BME280;31026;43.780;25.948;2023-07-09T06:20:22;101126.09;;;24.36;57.56
45285;BME280;31026;43.780;25.948;2023-07-09T06:22:50;101116.13;;;24.36;57.42
45285;BME280;31026;43.780;25.948;2023-07-09T06:25:19;101123.56;;;24.34;57.43
45285;BME280;31026;43.780;25.948;2023-07-09T06:27:47;101124.38;;;24.35;57.24
45285;BME280;31026;43.780;25.948;2023-07-09T06:30:18;101127.03;;;24.53;56.93
45285;BME280;31026;43.780;25.948;2023-07-09T06:32:46;101116.53;;;24.50;57.33
45285;BME280;31026;43.780;25.948;2023-07-09T06:35:14;101117.16;;;24.35;57.99
45285;BME280;31026;43.780;25.948;2023-07-09T06:37:43;101103.94;;;24.32;57.75
45285;BME280;31026;43.780;25.948;2023-07-09T06:40:11;101105.13;;;24.30;57.63
45285;BME280;31026;43.780;25.948;2023-07-09T06:42:40;101108.50;;;24.32;57.88
45285;BME280;31026;43.780;25.948;2023-07-09T06:45:08;101122.69;;;24.26;58.20
45285;BME280;31026;43.780;25.948;2023-07-09T06:47:39;101111.22;;;24.32;57.92
45285;BME280;31026;43.780;25.948;2023-07-09T06:50:07;101106.50;;;24.34;57.83
45285;BME280;31026;43.780;25.948;2023-07-09T06:52:36;101098.72;;;24.39;57.56
45285;BME280;31026;43.780;25.948;2023-07-09T06:55:05;101113.22;;;24.64;57.35
45285;BME280;31026;43.780;25.948;2023-07-09T06:57:33;101112.72;;;24.77;57.21
45285;BME280;31026;43.780;25.948;2023-07-09T07:00:01;101114.88;;;24.57;57.84
45285;BME280;31026;43.780;25.948;2023-07-09T07:02:30;101117.28;;;24.68;57.86
45285;BME280;31026;43.780;25.948;2023-07-09T07:05:00;101116.47;;;24.76;57.66
45285;BME280;31026;43.780;25.948;2023-07-09T07:07:29;101114.81;;;24.83;57.23
45285;BME280;31026;43.780;25.948;2023-07-09T07:09:57;101093.69;;;24.95;57.49
45285;BME280;31026;43.780;25.948;2023-07-09T07:12:26;101097.91;;;24.81;58.45
45285;BME280;31026;43.780;25.948;2023-07-09T07:14:55;101103.09;;;24.66;58.40
45285;BME280;31026;43.780;25.948;2023-07-09T07:17:23;101107.28;;;24.60;58.81
45285;BME280;31026;43.780;25.948;2023-07-09T07:19:52;101107.94;;;24.54;58.78
45285;BME280;31026;43.780;25.948;2023-07-09T07:22:23;101096.19;;;24.88;58.14
45285;BME280;31026;43.780;25.948;2023-07-09T07:24:51;101094.81;;;24.68;58.82
45285;BME280;31026;43.780;25.948;2023-07-09T07:27:19;101089.03;;;24.63;59.36
45285;BME280;31026;43.780;25.948;2023-07-09T07:29:48;101093.94;;;24.59;59.14
45285;BME280;31026;43.780;25.948;2023-07-09T07:32:16;101101.28;;;24.83;58.51
45285;BME280;31026;43.780;25.948;2023-07-09T07:34:44;101099.41;;;24.92;58.37
45285;BME280;31026;43.780;25.948;2023-07-09T07:37:14;101099.41;;;24.75;58.73
45285;BME280;31026;43.780;25.948;2023-07-09T07:39:44;101086.34;;;24.63;59.03
45285;BME280;31026;43.780;25.948;2023-07-09T07:42:13;101085.66;;;24.60;59.23
45285;BME280;31026;43.780;25.948;2023-07-09T07:44:41;101092.94;;;24.60;59.65
45285;BME280;31026;43.780;25.948;2023-07-09T07:47:09;101092.78;;;24.61;60.15
45285;BME280;31026;43.780;25.948;2023-07-09T07:49:38;101091.28;;;24.84;59.10
45285;BME280;31026;43.780;25.948;2023-07-09T07:52:06;101089.44;;;24.92;58.96
45285;BME280;31026;43.780;25.948;2023-07-09T07:54:35;101091.66;;;24.97;58.78
45285;BME280;31026;43.780;25.948;2023-07-09T07:57:06;101082.50;;;24.73;59.76
45285;BME280;31026;43.780;25.948;2023-07-09T07:59:36;101077.63;;;24.85;59.45
45285;BME280;31026;43.780;25.948;2023-07-09T08:02:04;101077.94;;;24.90;59.18
45285;BME280;31026;43.780;25.948;2023-07-09T08:04:34;101082.31;;;24.75;60.37
45285;BME280;31026;43.780;25.948;2023-07-09T08:07:02;101083.16;;;24.75;60.22
45285;BME280;31026;43.780;25.948;2023-07-09T08:09:30;101073.72;;;24.79;60.34
45285;BME280;31026;43.780;25.948;2023-07-09T08:11:58;101066.41;;;24.72;60.69
45285;BME280;31026;43.780;25.948;2023-07-09T08:14:33;101077.94;;;24.98;59.83
45285;BME280;31026;43.780;25.948;2023-07-09T08:17:01;101060.03;;;24.89;60.65
45285;BME280;31026;43.780;25.948;2023-07-09T08:19:29;101057.97;;;24.75;60.41
45285;BME280;31026;43.780;25.948;2023-07-09T08:21:58;101084.81;;;24.60;61.43
45285;BME280;31026;43.780;25.948;2023-07-09T08:24:26;101066.28;;;24.81;60.49
45285;BME280;31026;43.780;25.948;2023-07-09T08:26:54;101066.41;;;24.72;62.85
45285;BME280;31026;43.780;25.948;2023-07-09T08:29:25;101063.34;;;24.67;63.19
45285;BME280;31026;43.780;25.948;2023-07-09T08:31:56;101068.75;;;24.67;62.81
45285;BME280;31026;43.780;25.948;2023-07-09T08:34:24;101060.72;;;24.91;62.55
45285;BME280;31026;43.780;25.948;2023-07-09T08:36:53;101060.03;;;24.89;62.90
45285;BME280;31026;43.780;25.948;2023-07-09T08:39:21;101056.97;;;24.84;64.40
45285;BME280;31026;43.780;25.948;2023-07-09T08:41:52;101065.75;;;24.86;63.99
45285;BME280;31026;43.780;25.948;2023-07-09T08:44:35;101058.28;;;24.64;65.03
45285;BME280;31026;43.780;25.948;2023-07-09T08:47:11;101058.97;;;24.66;64.23
45285;BME280;31026;43.780;25.948;2023-07-09T08:49:43;101064.56;;;24.72;64.47
45285;BME280;31026;43.780;25.948;2023-07-09T08:52:14;101069.28;;;24.62;65.09
45285;BME280;31026;43.780;25.948;2023-07-09T08:54:46;101047.81;;;24.60;66.21
45285;BME280;31026;43.780;25.948;2023-07-09T08:57:17;101065.72;;;24.61;66.24
45285;BME280;31026;43.780;25.948;2023-07-09T08:59:48;101056.97;;;24.76;65.43
45285;BME280;31026;43.780;25.948;2023-07-09T09:02:25;101056.13;;;24.92;64.69
45285;BME280;31026;43.780;25.948;2023-07-09T09:04:56;101060.72;;;24.91;65.21
45285;BME280;31026;43.780;25.948;2023-07-09T09:07:28;101066.13;;;25.08;65.35
45285;BME280;31026;43.780;25.948;2023-07-09T09:10:00;101053.09;;;25.03;65.18
45285;BME280;31026;43.780;25.948;2023-07-09T09:12:31;101061.03;;;24.96;65.34
45285;BME280;31026;43.780;25.948;2023-07-09T09:15:04;101057.66;;;24.86;67.22
45285;BME280;31026;43.780;25.948;2023-07-09T09:17:40;101054.94;;;24.94;65.94
45285;BME280;31026;43.780;25.948;2023-07-09T09:20:09;101061.03;;;24.96;65.89
45285;BME280;31026;43.780;25.948;2023-07-09T09:22:40;101051.25;;;24.95;65.32
45285;BME280;31026;43.780;25.948;2023-07-09T09:25:15;101055.31;;;25.08;64.83
45285;BME280;31026;43.780;25.948;2023-07-09T09:27:46;101049.53;;;24.78;66.78
45285;BME280;31026;43.780;25.948;2023-07-09T09:30:15;101049.00;;;24.74;66.56
45285;BME280;31026;43.780;25.948;2023-07-09T09:32:47;101053.22;;;24.77;66.62
45285;BME280;31026;43.780;25.948;2023-07-09T09:35:16;101048.50;;;24.71;67.73
45285;BME280;31026;43.780;25.948;2023-07-09T09:37:49;101046.31;;;24.74;67.28
45285;BME280;31026;43.780;25.948;2023-07-09T09:40:18;101056.28;;;24.98;65.79
45285;BME280;31026;43.780;25.948;2023-07-09T09:42:48;101053.75;;;24.72;66.74
45285;BME280;31026;43.780;25.948;2023-07-09T09:45:17;101049.69;;;24.76;67.05
45285;BME280;31026;43.780;25.948;2023-07-09T09:47:49;100968.13;;;24.22;67.50
45285;BME280;31026;43.780;25.948;2023-07-09T09:50:18;101047.81;;;24.77;66.17
45285;BME280;31026;43.780;25.948;2023-07-09T09:52:47;101052.22;;;24.70;67.93
45285;BME280;31026;43.780;25.948;2023-07-09T09:55:16;101044.44;;;24.67;68.29
45285;BME280;31026;43.780;25.948;2023-07-09T09:57:49;101053.75;;;24.80;67.04
45285;BME280;31026;43.780;25.948;2023-07-09T10:00:18;101064.09;;;24.93;66.74
45285;BME280;31026;43.780;25.948;2023-07-09T10:02:49;101054.28;;;25.00;66.54
45285;BME280;31026;43.780;25.948;2023-07-09T10:05:20;101048.03;;;25.00;66.43
45285;BME280;31026;43.780;25.948;2023-07-09T10:07:53;101037.03;;;24.93;67.34
45285;BME280;31026;43.780;25.948;2023-07-09T10:10:24;101036.16;;;24.76;68.22
45285;BME280;31026;43.780;25.948;2023-07-09T10:12:56;101040.75;;;24.92;67.55
45285;BME280;31026;43.780;25.948;2023-07-09T10:15:31;101047.69;;;24.95;66.71
45285;BME280;31026;43.780;25.948;2023-07-09T10:18:06;101035.53;;;24.99;66.62
45285;BME280;31026;43.780;25.948;2023-07-09T10:20:40;101043.44;;;24.84;67.08
45285;BME280;31026;43.780;25.948;2023-07-09T10:23:18;101048.19;;;24.90;66.98
45285;BME280;31026;43.780;25.948;2023-07-09T10:25:51;101030.28;;;24.81;67.16
45285;BME280;31026;43.780;25.948;2023-07-09T10:31:08;101041.41;;;24.86;67.19
45285;BME280;31026;43.780;25.948;2023-07-09T10:33:44;101032.63;;;24.92;66.32
45285;BME280;31026;43.780;25.948;2023-07-09T10:36:17;101029.25;;;24.90;66.44
45285;BME280;31026;43.780;25.948;2023-07-09T10:38:50;101029.91;;;24.76;67.82
45285;BME280;31026;43.780;25.948;2023-07-09T10:41:23;101028.19;;;24.58;67.52
45285;BME280;31026;43.780;25.948;2023-07-09T10:43:53;101021.59;;;24.61;67.81
45285;BME280;31026;43.780;25.948;2023-07-09T10:46:25;101005.72;;;24.74;66.86
45285;BME280;31026;43.780;25.948;2023-07-09T10:48:56;101016.91;;;24.79;65.58
45285;BME280;31026;43.780;25.948;2023-07-09T10:51:26;101006.09;;;24.71;66.23
45285;BME280;31026;43.780;25.948;2023-07-09T10:53:56;101028.38;;;24.65;66.41
45285;BME280;31026;43.780;25.948;2023-07-09T10:56:26;101004.38;;;24.54;67.34
45285;BME280;31026;43.780;25.948;2023-07-09T10:58:57;101009.63;;;24.55;67.27
45285;BME280;31026;43.780;25.948;2023-07-09T11:01:32;101010.31;;;24.90;65.70
45285;BME280;31026;43.780;25.948;2023-07-09T11:04:06;101018.25;;;24.75;66.54
45285;BME280;31026;43.780;25.948;2023-07-09T11:06:38;101002.88;;;24.76;65.62
45285;BME280;31026;43.780;25.948;2023-07-09T11:09:11;101010.66;;;24.79;65.60
45285;BME280;31026;43.780;25.948;2023-07-09T11:11:42;101023.47;;;24.69;66.73
45285;BME280;31026;43.780;25.948;2023-07-09T11:14:17;101005.56;;;24.51;65.87
45285;BME280;31026;43.780;25.948;2023-07-09T11:16:51;101001.81;;;24.52;66.34
45285;BME280;31026;43.780;25.948;2023-07-09T11:19:24;101019.44;;;24.89;65.30
45285;BME280;31026;43.780;25.948;2023-07-09T11:22:02;100999.50;;;24.74;65.35
45285;BME280;31026;43.780;25.948;2023-07-09T11:24:31;101003.84;;;24.50;65.42
45285;BME280;31026;43.780;25.948;2023-07-09T11:27:00;100993.72;;;24.60;65.32
45285;BME280;31026;43.780;25.948;2023-07-09T11:29:28;101005.56;;;24.76;65.02
45285;BME280;31026;43.780;25.948;2023-07-09T11:32:06;101004.69;;;24.59;65.43
45285;BME280;31026;43.780;25.948;2023-07-09T11:34:44;101002.72;;;24.77;65.12
45285;BME280;31026;43.780;25.948;2023-07-09T11:37:13;100997.47;;;24.76;65.63
45285;BME280;31026;43.780;25.948;2023-07-09T11:39:42;100990.84;;;24.78;65.62
45285;BME280;31026;43.780;25.948;2023-07-09T11:42:24;100991.22;;;24.84;65.21
45285;BME280;31026;43.780;25.948;2023-07-09T11:44:53;100983.63;;;24.79;65.51
45285;BME280;31026;43.780;25.948;2023-07-09T11:47:27;100990.38;;;24.83;65.75
45285;BME280;31026;43.780;25.948;2023-07-09T11:49:59;100982.91;;;24.77;65.70
45285;BME280;31026;43.780;25.948;2023-07-09T11:52:30;100978.69;;;24.74;65.64
45285;BME280;31026;43.780;25.948;2023-07-09T11:55:01;100986.31;;;24.79;65.76
45285;BME280;31026;43.780;25.948;2023-07-09T11:57:30;100975.81;;;24.76;65.76
45285;BME280;31026;43.780;25.948;2023-07-09T11:59:59;100987.31;;;24.70;65.78
45285;BME280;31026;43.780;25.948;2023-07-09T12:02:30;100974.47;;;24.72;65.55
45285;BME280;31026;43.780;25.948;2023-07-09T12:05:03;100969.22;;;24.70;65.91
45285;BME280;31026;43.780;25.948;2023-07-09T12:07:32;100975.97;;;24.66;65.90
45285;BME280;31026;43.780;25.948;2023-07-09T12:10:02;100973.44;;;24.65;65.79
45285;BME280;31026;43.780;25.948;2023-07-09T12:12:31;100980.88;;;24.63;65.87
45285;BME280;31026;43.780;25.948;2023-07-09T12:14:59;100979.53;;;24.67;65.72
45285;BME280;31026;43.780;25.948;2023-07-09T12:17:32;100973.41;;;24.48;65.23
45285;BME280;31026;43.780;25.948;2023-07-09T12:20:03;100962.22;;;24.35;66.73
45285;BME280;31026;43.780;25.948;2023-07-09T12:22:32;100967.81;;;24.41;65.84
45285;BME280;31026;43.780;25.948;2023-07-09T12:25:00;100974.47;;;24.55;65.63
45285;BME280;31026;43.780;25.948;2023-07-09T12:27:31;100960.13;;;24.63;65.64
45285;BME280;31026;43.780;25.948;2023-07-09T12:30:02;100967.50;;;24.61;65.47
45285;BME280;31026;43.780;25.948;2023-07-09T12:32:31;100965.00;;;24.59;65.55
45285;BME280;31026;43.780;25.948;2023-07-09T12:34:59;100954.84;;;24.86;64.52
45285;BME280;31026;43.780;25.948;2023-07-09T12:37:30;100961.59;;;25.07;63.88
45285;BME280;31026;43.780;25.948;2023-07-09T12:39:59;100960.59;;;25.08;63.96
45285;BME280;31026;43.780;25.948;2023-07-09T12:42:29;100954.16;;;24.92;63.74
45285;BME280;31026;43.780;25.948;2023-07-09T12:44:58;100967.88;;;24.83;64.15
45285;BME280;31026;43.780;25.948;2023-07-09T12:47:26;100954.19;;;24.76;64.61
45285;BME280;31026;43.780;25.948;2023-07-09T12:50:00;100950.81;;;24.82;64.40
45285;BME280;31026;43.780;25.948;2023-07-09T12:52:31;100943.03;;;24.79;64.25
45285;BME280;31026;43.780;25.948;2023-07-09T12:55:00;100944.41;;;24.83;64.32
45285;BME280;31026;43.780;25.948;2023-07-09T12:57:29;100937.94;;;24.92;64.46
45285;BME280;31026;43.780;25.948;2023-07-09T12:59:58;100945.38;;;24.90;64.34
45285;BME280;31026;43.780;25.948;2023-07-09T13:02:27;100936.28;;;24.91;64.38